Decoded Metar for KSDM (SAN DIEGO/BROWN in CA, USA) (IATA:SDM) | Meteo·Mobile Aviation Weather
aviador You're here:

KSDM Decoded Metar

SAN DIEGO/BROWN in CA, USA
Report Time2019-09-21 08:53:00
UTC Time2019-09-21 09:49:44
Flight Rules vfr VFR
WindCalm
Visibility9999 m
Phenomena:N/A
Clouds:N/A
Expected CloudBase > 800 ft AGL from Temp-Dew spread
CeilingNone
Temp16°C (ISA +2)
Dew Point14°C (88% RH)
QNH1012 hPa
Density Alt1,010 ft
Elevation522 ft
Report Wrong Elevation
Raw Report
KSDM 210853Z AUTO 00000KT 8SM CLR 16/14 A2989 RMK AO2 SLP119
T01610144 55000=

Extra information for KSDM:More info

Metar Taf Metar & Taf Last 4 Metars F.Rules Stats Wind Profile Meteogram Temp Stats Airport Information Weather charts Add Link Nearby VenuesMetar ALERT Operation Metar Decoded Social comments

AIRNAV info for KSDM